sensor_id;sensor_type;location;lat;lon;timestamp;P1;durP1;ratioP1;P2;durP2;ratioP2
4692;SDS011;11710;48.024;16.296;2023-04-25T05:04:11;5.95;;;4.10;;
4692;SDS011;11710;48.024;16.296;2023-04-25T05:06:38;5.28;;;3.53;;
4692;SDS011;11710;48.024;16.296;2023-04-25T05:09:05;4.80;;;4.05;;
4692;SDS011;11710;48.024;16.296;2023-04-25T05:11:33;5.25;;;4.25;;
4692;SDS011;11710;48.024;16.296;2023-04-25T05:14:00;5.78;;;3.88;;
4692;SDS011;11710;48.024;16.296;2023-04-25T05:16:27;5.20;;;3.40;;
4692;SDS011;11710;48.024;16.296;2023-04-25T05:18:55;5.13;;;4.18;;
4692;SDS011;11710;48.024;16.296;2023-04-25T05:21:23;6.57;;;3.70;;
4692;SDS011;11710;48.024;16.296;2023-04-25T05:23:50;4.45;;;4.05;;
4692;SDS011;11710;48.024;16.296;2023-04-25T05:26:18;4.85;;;3.97;;
4692;SDS011;11710;48.024;16.296;2023-04-25T05:28:45;3.90;;;3.60;;
4692;SDS011;11710;48.024;16.296;2023-04-25T05:31:12;4.73;;;3.30;;
4692;SDS011;11710;48.024;16.296;2023-04-25T05:33:40;6.77;;;3.93;;
4692;SDS011;11710;48.024;16.296;2023-04-25T05:36:07;3.87;;;3.57;;
4692;SDS011;11710;48.024;16.296;2023-04-25T05:38:40;5.23;;;3.80;;
4692;SDS011;11710;48.024;16.296;2023-04-25T05:41:07;3.97;;;3.53;;
4692;SDS011;11710;48.024;16.296;2023-04-25T05:43:34;3.13;;;2.93;;
4692;SDS011;11710;48.024;16.296;2023-04-25T05:46:01;6.27;;;4.30;;
4692;SDS011;11710;48.024;16.296;2023-04-25T05:48:28;4.20;;;3.73;;
4692;SDS011;11710;48.024;16.296;2023-04-25T05:50:56;3.67;;;3.33;;
4692;SDS011;11710;48.024;16.296;2023-04-25T05:53:23;3.13;;;2.93;;
4692;SDS011;11710;48.024;16.296;2023-04-25T05:55:51;3.60;;;3.30;;
4692;SDS011;11710;48.024;16.296;2023-04-25T05:58:19;3.77;;;3.47;;
4692;SDS011;11710;48.024;16.296;2023-04-25T06:00:46;4.27;;;3.87;;
4692;SDS011;11710;48.024;16.296;2023-04-25T06:03:13;11.73;;;4.53;;
4692;SDS011;11710;48.024;16.296;2023-04-25T06:05:41;3.93;;;3.50;;
4692;SDS011;11710;48.024;16.296;2023-04-25T06:08:08;4.07;;;3.40;;
4692;SDS011;11710;48.024;16.296;2023-04-25T06:10:36;3.90;;;3.60;;
4692;SDS011;11710;48.024;16.296;2023-04-25T06:13:05;7.50;;;3.43;;
4692;SDS011;11710;48.024;16.296;2023-04-25T06:15:32;7.30;;;5.93;;
4692;SDS011;11710;48.024;16.296;2023-04-25T06:18:00;4.50;;;3.97;;
4692;SDS011;11710;48.024;16.296;2023-04-25T06:20:27;7.03;;;3.50;;
4692;SDS011;11710;48.024;16.296;2023-04-25T06:22:54;4.53;;;3.23;;
4692;SDS011;11710;48.024;16.296;2023-04-25T06:25:22;7.10;;;3.83;;
4692;SDS011;11710;48.024;16.296;2023-04-25T06:27:49;5.20;;;4.00;;
4692;SDS011;11710;48.024;16.296;2023-04-25T06:30:18;5.47;;;4.10;;
4692;SDS011;11710;48.024;16.296;2023-04-25T06:32:48;4.37;;;3.57;;
4692;SDS011;11710;48.024;16.296;2023-04-25T06:35:16;4.40;;;3.13;;
4692;SDS011;11710;48.024;16.296;2023-04-25T06:37:43;3.40;;;3.10;;
4692;SDS011;11710;48.024;16.296;2023-04-25T06:40:10;3.80;;;3.43;;
4692;SDS011;11710;48.024;16.296;2023-04-25T06:42:38;3.80;;;3.13;;
4692;SDS011;11710;48.024;16.296;2023-04-25T06:45:06;4.00;;;3.50;;
4692;SDS011;11710;48.024;16.296;2023-04-25T06:47:35;3.90;;;3.60;;
4692;SDS011;11710;48.024;16.296;2023-04-25T06:50:03;4.07;;;3.67;;
4692;SDS011;11710;48.024;16.296;2023-04-25T06:52:31;4.53;;;3.70;;
4692;SDS011;11710;48.024;16.296;2023-04-25T06:54:59;6.30;;;4.77;;
4692;SDS011;11710;48.024;16.296;2023-04-25T06:57:30;3.90;;;3.40;;
4692;SDS011;11710;48.024;16.296;2023-04-25T06:59:57;4.00;;;3.27;;
4692;SDS011;11710;48.024;16.296;2023-04-25T07:02:24;5.77;;;3.40;;
4692;SDS011;11710;48.024;16.296;2023-04-25T07:04:52;3.80;;;3.40;;
4692;SDS011;11710;48.024;16.296;2023-04-25T07:07:24;5.27;;;3.60;;
4692;SDS011;11710;48.024;16.296;2023-04-25T07:09:52;3.77;;;3.40;;
4692;SDS011;11710;48.024;16.296;2023-04-25T07:12:20;3.93;;;3.00;;
4692;SDS011;11710;48.024;16.296;2023-04-25T07:14:47;3.93;;;3.20;;
4692;SDS011;11710;48.024;16.296;2023-04-25T07:17:14;5.20;;;3.00;;
4692;SDS011;11710;48.024;16.296;2023-04-25T07:19:42;3.60;;;3.30;;
4692;SDS011;11710;48.024;16.296;2023-04-25T07:22:11;3.20;;;3.00;;
4692;SDS011;11710;48.024;16.296;2023-04-25T07:24:38;4.33;;;3.73;;
4692;SDS011;11710;48.024;16.296;2023-04-25T07:27:06;3.47;;;3.17;;
4692;SDS011;11710;48.024;16.296;2023-04-25T07:29:33;4.63;;;3.10;;
4692;SDS011;11710;48.024;16.296;2023-04-25T07:32:02;3.57;;;3.23;;
4692;SDS011;11710;48.024;16.296;2023-04-25T07:34:29;3.63;;;3.00;;
4692;SDS011;11710;48.024;16.296;2023-04-25T07:36:57;6.20;;;2.80;;
4692;SDS011;11710;48.024;16.296;2023-04-25T07:39:27;4.00;;;3.60;;
4692;SDS011;11710;48.024;16.296;2023-04-25T07:41:54;3.73;;;3.13;;
4692;SDS011;11710;48.024;16.296;2023-04-25T07:44:21;3.87;;;3.47;;
4692;SDS011;11710;48.024;16.296;2023-04-25T07:46:48;3.50;;;3.20;;
4692;SDS011;11710;48.024;16.296;2023-04-25T07:49:15;3.70;;;3.10;;
4692;SDS011;11710;48.024;16.296;2023-04-25T07:51:42;3.83;;;3.43;;
4692;SDS011;11710;48.024;16.296;2023-04-25T07:54:10;3.00;;;2.70;;
4692;SDS011;11710;48.024;16.296;2023-04-25T07:56:42;3.60;;;3.30;;
4692;SDS011;11710;48.024;16.296;2023-04-25T07:59:09;3.70;;;3.23;;
4692;SDS011;11710;48.024;16.296;2023-04-25T08:01:36;3.53;;;3.20;;
4692;SDS011;11710;48.024;16.296;2023-04-25T08:04:03;3.97;;;3.10;;
4692;SDS011;11710;48.024;16.296;2023-04-25T08:06:30;4.20;;;2.53;;
4692;SDS011;11710;48.024;16.296;2023-04-25T08:08:58;6.27;;;4.07;;
4692;SDS011;11710;48.024;16.296;2023-04-25T08:11:25;6.50;;;3.50;;
4692;SDS011;11710;48.024;16.296;2023-04-25T08:13:53;4.00;;;3.10;;
4692;SDS011;11710;48.024;16.296;2023-04-25T08:16:21;3.63;;;3.13;;
4692;SDS011;11710;48.024;16.296;2023-04-25T08:18:49;3.33;;;3.03;;
4692;SDS011;11710;48.024;16.296;2023-04-25T08:21:17;3.30;;;3.03;;
4692;SDS011;11710;48.024;16.296;2023-04-25T08:23:44;3.80;;;3.40;;
4692;SDS011;11710;48.024;16.296;2023-04-25T08:26:12;4.27;;;3.30;;
4692;SDS011;11710;48.024;16.296;2023-04-25T08:28:39;4.77;;;3.37;;
4692;SDS011;11710;48.024;16.296;2023-04-25T08:31:07;4.30;;;3.60;;
4692;SDS011;11710;48.024;16.296;2023-04-25T08:33:35;4.10;;;3.13;;
4692;SDS011;11710;48.024;16.296;2023-04-25T08:36:02;4.40;;;3.40;;
4692;SDS011;11710;48.024;16.296;2023-04-25T08:38:30;5.63;;;3.07;;
4692;SDS011;11710;48.024;16.296;2023-04-25T08:40:58;3.40;;;3.10;;
4692;SDS011;11710;48.024;16.296;2023-04-25T08:43:27;4.00;;;3.43;;
4692;SDS011;11710;48.024;16.296;2023-04-25T08:45:57;3.67;;;3.20;;
4692;SDS011;11710;48.024;16.296;2023-04-25T08:48:27;4.50;;;2.83;;
4692;SDS011;11710;48.024;16.296;2023-04-25T08:50:58;3.10;;;2.80;;
4692;SDS011;11710;48.024;16.296;2023-04-25T08:53:26;4.20;;;3.03;;
4692;SDS011;11710;48.024;16.296;2023-04-25T08:55:54;5.43;;;3.00;;
4692;SDS011;11710;48.024;16.296;2023-04-25T08:58:22;7.13;;;3.23;;
4692;SDS011;11710;48.024;16.296;2023-04-25T09:00:50;4.03;;;3.63;;
4692;SDS011;11710;48.024;16.296;2023-04-25T09:03:18;4.63;;;3.43;;
4692;SDS011;11710;48.024;16.296;2023-04-25T09:05:46;3.40;;;3.10;;
4692;SDS011;11710;48.024;16.296;2023-04-25T09:08:14;3.70;;;2.90;;
4692;SDS011;11710;48.024;16.296;2023-04-25T09:10:41;3.20;;;2.90;;
4692;SDS011;11710;48.024;16.296;2023-04-25T09:13:08;3.23;;;2.93;;
4692;SDS011;11710;48.024;16.296;2023-04-25T09:15:47;3.17;;;2.87;;
4692;SDS011;11710;48.024;16.296;2023-04-25T09:18:23;3.47;;;2.63;;
4692;SDS011;11710;48.024;16.296;2023-04-25T09:20:53;2.43;;;2.23;;
4692;SDS011;11710;48.024;16.296;2023-04-25T09:23:21;2.67;;;2.47;;
4692;SDS011;11710;48.024;16.296;2023-04-25T09:25:52;3.10;;;2.90;;
4692;SDS011;11710;48.024;16.296;2023-04-25T09:28:25;3.20;;;2.90;;
4692;SDS011;11710;48.024;16.296;2023-04-25T09:31:03;3.43;;;3.13;;
4692;SDS011;11710;48.024;16.296;2023-04-25T09:33:31;3.90;;;2.73;;
4692;SDS011;11710;48.024;16.296;2023-04-25T09:36:05;4.17;;;2.97;;
4692;SDS011;11710;48.024;16.296;2023-04-25T09:38:39;3.50;;;2.70;;
4692;SDS011;11710;48.024;16.296;2023-04-25T09:41:07;2.70;;;2.43;;
4692;SDS011;11710;48.024;16.296;2023-04-25T09:43:35;3.80;;;2.60;;
4692;SDS011;11710;48.024;16.296;2023-04-25T09:46:07;3.40;;;2.43;;
4692;SDS011;11710;48.024;16.296;2023-04-25T09:48:36;2.60;;;2.40;;
4692;SDS011;11710;48.024;16.296;2023-04-25T09:51:06;2.80;;;2.57;;
4692;SDS011;11710;48.024;16.296;2023-04-25T09:53:34;3.50;;;2.53;;
4692;SDS011;11710;48.024;16.296;2023-04-25T09:56:04;2.97;;;2.67;;
4692;SDS011;11710;48.024;16.296;2023-04-25T09:58:33;2.60;;;2.40;;
4692;SDS011;11710;48.024;16.296;2023-04-25T10:01:02;5.00;;;2.70;;
4692;SDS011;11710;48.024;16.296;2023-04-25T10:03:31;3.00;;;2.53;;
4692;SDS011;11710;48.024;16.296;2023-04-25T10:06:00;2.43;;;2.23;;
4692;SDS011;11710;48.024;16.296;2023-04-25T10:08:31;2.97;;;2.63;;
4692;SDS011;11710;48.024;16.296;2023-04-25T10:11:00;2.80;;;2.60;;
4692;SDS011;11710;48.024;16.296;2023-04-25T10:13:29;2.50;;;2.30;;
4692;SDS011;11710;48.024;16.296;2023-04-25T10:15:57;3.40;;;2.80;;
4692;SDS011;11710;48.024;16.296;2023-04-25T10:18:25;3.23;;;2.83;;
4692;SDS011;11710;48.024;16.296;2023-04-25T10:20:54;4.03;;;3.20;;
4692;SDS011;11710;48.024;16.296;2023-04-25T10:23:22;3.63;;;3.33;;
4692;SDS011;11710;48.024;16.296;2023-04-25T10:25:52;3.70;;;3.10;;
4692;SDS011;11710;48.024;16.296;2023-04-25T10:28:20;5.67;;;2.90;;
4692;SDS011;11710;48.024;16.296;2023-04-25T10:30:56;3.30;;;3.00;;
4692;SDS011;11710;48.024;16.296;2023-04-25T10:33:32;3.93;;;2.87;;
4692;SDS011;11710;48.024;16.296;2023-04-25T10:36:08;3.35;;;3.00;;
4692;SDS011;11710;48.024;16.296;2023-04-25T10:38:37;2.40;;;2.10;;
4692;SDS011;11710;48.024;16.296;2023-04-25T10:41:06;2.60;;;2.40;;
4692;SDS011;11710;48.024;16.296;2023-04-25T10:43:35;2.47;;;2.27;;
4692;SDS011;11710;48.024;16.296;2023-04-25T10:46:16;2.77;;;2.43;;
4692;SDS011;11710;48.024;16.296;2023-04-25T10:48:45;4.20;;;2.53;;
4692;SDS011;11710;48.024;16.296;2023-04-25T10:51:19;2.67;;;2.47;;
4692;SDS011;11710;48.024;16.296;2023-04-25T10:53:57;2.60;;;2.40;;
4692;SDS011;11710;48.024;16.296;2023-04-25T10:56:27;3.43;;;2.53;;
4692;SDS011;11710;48.024;16.296;2023-04-25T10:59:03;2.80;;;2.60;;
4692;SDS011;11710;48.024;16.296;2023-04-25T11:01:35;2.50;;;2.30;;
4692;SDS011;11710;48.024;16.296;2023-04-25T11:04:04;2.83;;;2.60;;
4692;SDS011;11710;48.024;16.296;2023-04-25T11:06:34;3.50;;;2.70;;
4692;SDS011;11710;48.024;16.296;2023-04-25T11:09:10;2.40;;;2.20;;
4692;SDS011;11710;48.024;16.296;2023-04-25T11:11:40;2.90;;;2.70;;
4692;SDS011;11710;48.024;16.296;2023-04-25T11:14:08;2.83;;;2.60;;
4692;SDS011;11710;48.024;16.296;2023-04-25T11:16:38;3.00;;;2.70;;
4692;SDS011;11710;48.024;16.296;2023-04-25T11:19:06;2.77;;;2.57;;
4692;SDS011;11710;48.024;16.296;2023-04-25T11:21:34;4.30;;;2.80;;
4692;SDS011;11710;48.024;16.296;2023-04-25T11:24:02;3.30;;;3.00;;
4692;SDS011;11710;48.024;16.296;2023-04-25T11:26:31;2.87;;;2.57;;
4692;SDS011;11710;48.024;16.296;2023-04-25T11:29:01;2.70;;;2.50;;
4692;SDS011;11710;48.024;16.296;2023-04-25T11:31:29;3.60;;;2.90;;
4692;SDS011;11710;48.024;16.296;2023-04-25T11:33:56;4.23;;;3.10;;
4692;SDS011;11710;48.024;16.296;2023-04-25T11:36:24;3.20;;;2.80;;
4692;SDS011;11710;48.024;16.296;2023-04-25T11:38:52;3.30;;;3.00;;
4692;SDS011;11710;48.024;16.296;2023-04-25T11:41:20;3.00;;;2.50;;
4692;SDS011;11710;48.024;16.296;2023-04-25T11:43:47;3.50;;;2.60;;
4692;SDS011;11710;48.024;16.296;2023-04-25T11:46:18;3.50;;;3.20;;
4692;SDS011;11710;48.024;16.296;2023-04-25T11:48:47;3.80;;;3.50;;
4692;SDS011;11710;48.024;16.296;2023-04-25T11:51:15;3.60;;;3.30;;
4692;SDS011;11710;48.024;16.296;2023-04-25T11:53:44;3.80;;;3.47;;
4692;SDS011;11710;48.024;16.296;2023-04-25T11:56:12;6.93;;;3.40;;
4692;SDS011;11710;48.024;16.296;2023-04-25T11:58:56;7.95;;;3.50;;
4692;SDS011;11710;48.024;16.296;2023-04-25T12:01:26;3.00;;;2.70;;
4692;SDS011;11710;48.024;16.296;2023-04-25T12:03:55;2.30;;;2.10;;
4692;SDS011;11710;48.024;16.296;2023-04-25T12:06:25;1.60;;;1.50;;
4692;SDS011;11710;48.024;16.296;2023-04-25T12:09:00;1.80;;;1.70;;
4692;SDS011;11710;48.024;16.296;2023-04-25T12:11:30;1.90;;;1.80;;
4692;SDS011;11710;48.024;16.296;2023-04-25T12:14:01;2.00;;;1.80;;
4692;SDS011;11710;48.024;16.296;2023-04-25T12:16:39;1.90;;;1.70;;
4692;SDS011;11710;48.024;16.296;2023-04-25T12:19:07;1.83;;;1.73;;
4692;SDS011;11710;48.024;16.296;2023-04-25T12:21:34;3.30;;;2.10;;
4692;SDS011;11710;48.024;16.296;2023-04-25T12:24:11;2.47;;;1.87;;
4692;SDS011;11710;48.024;16.296;2023-04-25T12:26:49;2.70;;;1.80;;
4692;SDS011;11710;48.024;16.296;2023-04-25T12:29:18;2.13;;;1.93;;
4692;SDS011;11710;48.024;16.296;2023-04-25T12:31:48;2.13;;;2.03;;
4692;SDS011;11710;48.024;16.296;2023-04-25T12:34:17;3.20;;;2.07;;
4692;SDS011;11710;48.024;16.296;2023-04-25T12:37:05;3.07;;;2.40;;
4692;SDS011;11710;48.024;16.296;2023-04-25T12:39:32;2.57;;;2.27;;
4692;SDS011;11710;48.024;16.296;2023-04-25T12:41:59;2.47;;;2.27;;
4692;SDS011;11710;48.024;16.296;2023-04-25T12:44:27;2.20;;;2.10;;
4692;SDS011;11710;48.024;16.296;2023-04-25T12:46:56;3.40;;;2.17;;
4692;SDS011;11710;48.024;16.296;2023-04-25T12:49:25;5.03;;;2.60;;
4692;SDS011;11710;48.024;16.296;2023-04-25T12:51:52;2.37;;;2.17;;
4692;SDS011;11710;48.024;16.296;2023-04-25T12:54:19;4.23;;;2.30;;
4692;SDS011;11710;48.024;16.296;2023-04-25T12:56:47;2.50;;;2.30;;
4692;SDS011;11710;48.024;16.296;2023-04-25T12:59:15;1.77;;;1.67;;
4692;SDS011;11710;48.024;16.296;2023-04-25T13:01:43;1.80;;;1.70;;
4692;SDS011;11710;48.024;16.296;2023-04-25T13:04:12;2.00;;;1.90;;
4692;SDS011;11710;48.024;16.296;2023-04-25T13:06:40;2.20;;;1.97;;
4692;SDS011;11710;48.024;16.296;2023-04-25T13:09:08;3.33;;;2.27;;
4692;SDS011;11710;48.024;16.296;2023-04-25T13:11:37;2.60;;;2.40;;
4692;SDS011;11710;48.024;16.296;2023-04-25T13:14:05;2.10;;;2.00;;
4692;SDS011;11710;48.024;16.296;2023-04-25T13:16:33;2.57;;;1.80;;
4692;SDS011;11710;48.024;16.296;2023-04-25T13:19:00;3.00;;;1.90;;
4692;SDS011;11710;48.024;16.296;2023-04-25T13:21:29;2.73;;;2.00;;
4692;SDS011;11710;48.024;16.296;2023-04-25T13:23:57;2.13;;;1.93;;
4692;SDS011;11710;48.024;16.296;2023-04-25T13:26:25;1.80;;;1.70;;
4692;SDS011;11710;48.024;16.296;2023-04-25T13:28:52;2.10;;;1.90;;
4692;SDS011;11710;48.024;16.296;2023-04-25T13:31:19;2.77;;;2.10;;
4692;SDS011;11710;48.024;16.296;2023-04-25T13:33:47;4.60;;;1.80;;
4692;SDS011;11710;48.024;16.296;2023-04-25T13:36:14;2.17;;;2.07;;
4692;SDS011;11710;48.024;16.296;2023-04-25T13:38:43;2.10;;;2.00;;
4692;SDS011;11710;48.024;16.296;2023-04-25T13:41:12;1.90;;;1.80;;
4692;SDS011;11710;48.024;16.296;2023-04-25T13:43:45;2.03;;;1.87;;
4692;SDS011;11710;48.024;16.296;2023-04-25T13:46:14;2.53;;;2.20;;
4692;SDS011;11710;48.024;16.296;2023-04-25T13:48:42;2.43;;;1.93;;
4692;SDS011;11710;48.024;16.296;2023-04-25T13:51:15;2.17;;;1.90;;
4692;SDS011;11710;48.024;16.296;2023-04-25T13:53:44;2.23;;;2.10;;
4692;SDS011;11710;48.024;16.296;2023-04-25T13:56:11;3.10;;;1.93;;
4692;SDS011;11710;48.024;16.296;2023-04-25T13:58:39;2.00;;;1.80;;
4692;SDS011;11710;48.024;16.296;2023-04-25T14:01:06;2.00;;;1.80;;
4692;SDS011;11710;48.024;16.296;2023-04-25T14:03:33;2.67;;;2.47;;
4692;SDS011;11710;48.024;16.296;2023-04-25T14:06:00;2.43;;;2.23;;
4692;SDS011;11710;48.024;16.296;2023-04-25T14:08:28;2.17;;;2.07;;
4692;SDS011;11710;48.024;16.296;2023-04-25T14:10:56;1.90;;;1.80;;
4692;SDS011;11710;48.024;16.296;2023-04-25T14:13:24;4.80;;;1.80;;
4692;SDS011;11710;48.024;16.296;2023-04-25T14:15:51;1.97;;;1.73;;
4692;SDS011;11710;48.024;16.296;2023-04-25T14:18:18;2.03;;;1.83;;
4692;SDS011;11710;48.024;16.296;2023-04-25T14:20:45;2.10;;;2.00;;
4692;SDS011;11710;48.024;16.296;2023-04-25T14:23:12;3.23;;;1.83;;
4692;SDS011;11710;48.024;16.296;2023-04-25T14:25:40;2.30;;;1.70;;
4692;SDS011;11710;48.024;16.296;2023-04-25T14:28:09;2.03;;;1.83;;
4692;SDS011;11710;48.024;16.296;2023-04-25T14:30:37;1.83;;;1.70;;
4692;SDS011;11710;48.024;16.296;2023-04-25T14:33:04;1.70;;;1.60;;
4692;SDS011;11710;48.024;16.296;2023-04-25T14:35:31;1.70;;;1.60;;
4692;SDS011;11710;48.024;16.296;2023-04-25T14:37:58;1.80;;;1.70;;
4692;SDS011;11710;48.024;16.296;2023-04-25T14:40:26;1.87;;;1.77;;
4692;SDS011;11710;48.024;16.296;2023-04-25T14:42:53;1.70;;;1.60;;
4692;SDS011;11710;48.024;16.296;2023-04-25T14:45:22;1.80;;;1.70;;
4692;SDS011;11710;48.024;16.296;2023-04-25T14:47:49;1.73;;;1.63;;
4692;SDS011;11710;48.024;16.296;2023-04-25T14:50:17;2.03;;;1.77;;
4692;SDS011;11710;48.024;16.296;2023-04-25T14:52:44;1.80;;;1.70;;
4692;SDS011;11710;48.024;16.296;2023-04-25T14:55:11;1.73;;;1.63;;
4692;SDS011;11710;48.024;16.296;2023-04-25T14:57:39;1.93;;;1.73;;
4692;SDS011;11710;48.024;16.296;2023-04-25T15:00:07;1.83;;;1.60;;
4692;SDS011;11710;48.024;16.296;2023-04-25T15:02:41;1.70;;;1.60;;
4692;SDS011;11710;48.024;16.296;2023-04-25T15:05:08;1.70;;;1.60;;
4692;SDS011;11710;48.024;16.296;2023-04-25T15:07:36;1.77;;;1.67;;
4692;SDS011;11710;48.024;16.296;2023-04-25T15:10:05;2.40;;;1.77;;
4692;SDS011;11710;48.024;16.296;2023-04-25T15:12:38;1.90;;;1.80;;
4692;SDS011;11710;48.024;16.296;2023-04-25T15:15:06;2.50;;;2.30;;
4692;SDS011;11710;48.024;16.296;2023-04-25T15:17:36;2.87;;;2.37;;
4692;SDS011;11710;48.024;16.296;2023-04-25T15:20:06;4.60;;;2.90;;
4692;SDS011;11710;48.024;16.296;2023-04-25T15:22:35;2.13;;;2.03;;
4692;SDS011;11710;48.024;16.296;2023-04-25T15:25:03;2.73;;;2.40;;
4692;SDS011;11710;48.024;16.296;2023-04-25T15:27:34;2.50;;;2.30;;
4692;SDS011;11710;48.024;16.296;2023-04-25T15:30:06;2.47;;;2.27;;
4692;SDS011;11710;48.024;16.296;2023-04-25T15:32:36;2.17;;;1.97;;
4692;SDS011;11710;48.024;16.296;2023-04-25T15:35:04;2.23;;;2.03;;
4692;SDS011;11710;48.024;16.296;2023-04-25T15:37:34;2.53;;;2.33;;
4692;SDS011;11710;48.024;16.296;2023-04-25T15:40:03;2.27;;;2.07;;
4692;SDS011;11710;48.024;16.296;2023-04-25T15:42:34;4.60;;;2.10;;
4692;SDS011;11710;48.024;16.296;2023-04-25T15:45:02;2.30;;;2.10;;
4692;SDS011;11710;48.024;16.296;2023-04-25T15:47:29;3.90;;;2.00;;
4692;SDS011;11710;48.024;16.296;2023-04-25T15:49:57;3.27;;;2.00;;
4692;SDS011;11710;48.024;16.296;2023-04-25T15:52:26;5.67;;;1.83;;
4692;SDS011;11710;48.024;16.296;2023-04-25T15:54:54;1.90;;;1.80;;
4692;SDS011;11710;48.024;16.296;2023-04-25T15:57:21;2.20;;;2.00;;
4692;SDS011;11710;48.024;16.296;2023-04-25T15:59:48;1.50;;;1.40;;
4692;SDS011;11710;48.024;16.296;2023-04-25T16:02:16;2.13;;;1.60;;
4692;SDS011;11710;48.024;16.296;2023-04-25T16:04:43;2.73;;;1.40;;
4692;SDS011;11710;48.024;16.296;2023-04-25T16:07:11;1.50;;;1.40;;
4692;SDS011;11710;48.024;16.296;2023-04-25T16:09:40;1.63;;;1.53;;
4692;SDS011;11710;48.024;16.296;2023-04-25T16:12:08;1.60;;;1.50;;
4692;SDS011;11710;48.024;16.296;2023-04-25T16:14:36;1.90;;;1.50;;
4692;SDS011;11710;48.024;16.296;2023-04-25T16:17:04;1.63;;;1.47;;
4692;SDS011;11710;48.024;16.296;2023-04-25T16:19:31;1.50;;;1.40;;
4692;SDS011;11710;48.024;16.296;2023-04-25T16:21:58;2.50;;;1.90;;
4692;SDS011;11710;48.024;16.296;2023-04-25T16:24:26;2.40;;;1.80;;
4692;SDS011;11710;48.024;16.296;2023-04-25T16:26:55;1.70;;;1.60;;
4692;SDS011;11710;48.024;16.296;2023-04-25T16:29:23;3.38;;;1.48;;
4692;SDS011;11710;48.024;16.296;2023-04-25T16:31:50;1.65;;;1.55;;
4692;SDS011;11710;48.024;16.296;2023-04-25T16:34:17;3.47;;;1.95;;
4692;SDS011;11710;48.024;16.296;2023-04-25T16:36:47;1.73;;;1.63;;
4692;SDS011;11710;48.024;16.296;2023-04-25T16:39:14;1.55;;;1.45;;
4692;SDS011;11710;48.024;16.296;2023-04-25T16:41:42;1.87;;;1.73;;
4692;SDS011;11710;48.024;16.296;2023-04-25T16:44:11;1.50;;;1.40;;
4692;SDS011;11710;48.024;16.296;2023-04-25T16:46:39;2.42;;;1.88;;
4692;SDS011;11710;48.024;16.296;2023-04-25T16:49:06;1.55;;;1.45;;
4692;SDS011;11710;48.024;16.296;2023-04-25T16:51:34;3.17;;;1.83;;
4692;SDS011;11710;48.024;16.296;2023-04-25T16:54:01;1.75;;;1.63;;
4692;SDS011;11710;48.024;16.296;2023-04-25T16:56:28;2.67;;;1.67;;
4692;SDS011;11710;48.024;16.296;2023-04-25T16:58:55;2.00;;;1.80;;
4692;SDS011;11710;48.024;16.296;2023-04-25T17:01:24;3.17;;;1.60;;
4692;SDS011;11710;48.024;16.296;2023-04-25T17:03:51;3.05;;;1.40;;
4692;SDS011;11710;48.024;16.296;2023-04-25T17:06:19;2.80;;;1.30;;
4692;SDS011;11710;48.024;16.296;2023-04-25T17:08:46;1.65;;;1.50;;
4692;SDS011;11710;48.024;16.296;2023-04-25T17:11:14;1.50;;;1.40;;
4692;SDS011;11710;48.024;16.296;2023-04-25T17:13:41;2.78;;;1.58;;
4692;SDS011;11710;48.024;16.296;2023-04-25T17:16:09;3.33;;;1.90;;
4692;SDS011;11710;48.024;16.296;2023-04-25T17:18:42;2.13;;;1.80;;
4692;SDS011;11710;48.024;16.296;2023-04-25T17:21:09;2.80;;;1.85;;
4692;SDS011;11710;48.024;16.296;2023-04-25T17:23:36;2.30;;;1.77;;
4692;SDS011;11710;48.024;16.296;2023-04-25T17:26:09;1.30;;;1.20;;
4692;SDS011;11710;48.024;16.296;2023-04-25T17:28:36;1.30;;;1.20;;
4692;SDS011;11710;48.024;16.296;2023-04-25T17:31:05;1.83;;;1.55;;
4692;SDS011;11710;48.024;16.296;2023-04-25T17:33:33;1.40;;;1.30;;
4692;SDS011;11710;48.024;16.296;2023-04-25T17:36:02;1.52;;;1.42;;
4692;SDS011;11710;48.024;16.296;2023-04-25T17:38:29;1.48;;;1.38;;
4692;SDS011;11710;48.024;16.296;2023-04-25T17:40:57;2.30;;;1.98;;
4692;SDS011;11710;48.024;16.296;2023-04-25T17:43:24;2.03;;;1.75;;
4692;SDS011;11710;48.024;16.296;2023-04-25T17:45:52;5.22;;;2.30;;
4692;SDS011;11710;48.024;16.296;2023-04-25T17:48:19;1.63;;;1.50;;
4692;SDS011;11710;48.024;16.296;2023-04-25T17:50:47;2.28;;;1.88;;
4692;SDS011;11710;48.024;16.296;2023-04-25T17:53:16;4.03;;;2.00;;
4692;SDS011;11710;48.024;16.296;2023-04-25T17:55:43;3.42;;;2.22;;
4692;SDS011;11710;48.024;16.296;2023-04-25T17:58:10;2.75;;;2.50;;
4692;SDS011;11710;48.024;16.296;2023-04-25T18:00:37;3.13;;;2.40;;
4692;SDS011;11710;48.024;16.296;2023-04-25T18:03:05;2.35;;;1.95;;
4692;SDS011;11710;48.024;16.296;2023-04-25T18:05:33;2.13;;;1.90;;
4692;SDS011;11710;48.024;16.296;2023-04-25T18:08:01;1.65;;;1.55;;
4692;SDS011;11710;48.024;16.296;2023-04-25T18:10:30;1.80;;;1.70;;
4692;SDS011;11710;48.024;16.296;2023-04-25T18:12:59;2.08;;;1.90;;
4692;SDS011;11710;48.024;16.296;2023-04-25T18:15:27;2.40;;;2.20;;
4692;SDS011;11710;48.024;16.296;2023-04-25T18:17:55;2.20;;;1.70;;
4692;SDS011;11710;48.024;16.296;2023-04-25T18:20:22;2.50;;;2.30;;
4692;SDS011;11710;48.024;16.296;2023-04-25T18:22:50;1.70;;;1.60;;
4692;SDS011;11710;48.024;16.296;2023-04-25T18:25:17;2.00;;;1.90;;
4692;SDS011;11710;48.024;16.296;2023-04-25T18:27:45;1.73;;;1.63;;
4692;SDS011;11710;48.024;16.296;2023-04-25T18:30:14;2.38;;;1.85;;
4692;SDS011;11710;48.024;16.296;2023-04-25T18:32:41;2.00;;;1.80;;
4692;SDS011;11710;48.024;16.296;2023-04-25T18:35:09;2.30;;;2.10;;
4692;SDS011;11710;48.024;16.296;2023-04-25T18:37:36;4.13;;;1.90;;
4692;SDS011;11710;48.024;16.296;2023-04-25T18:40:04;2.30;;;2.10;;
4692;SDS011;11710;48.024;16.296;2023-04-25T18:42:34;4.15;;;2.47;;
4692;SDS011;11710;48.024;16.296;2023-04-25T18:45:04;3.92;;;2.25;;
4692;SDS011;11710;48.024;16.296;2023-04-25T18:47:33;2.13;;;1.88;;
4692;SDS011;11710;48.024;16.296;2023-04-25T18:50:00;3.20;;;2.00;;
4692;SDS011;11710;48.024;16.296;2023-04-25T18:52:30;2.22;;;2.03;;
4692;SDS011;11710;48.024;16.296;2023-04-25T18:54:57;1.77;;;1.67;;
4692;SDS011;11710;48.024;16.296;2023-04-25T18:57:25;2.15;;;1.65;;
4692;SDS011;11710;48.024;16.296;2023-04-25T18:59:55;5.38;;;2.33;;
4692;SDS011;11710;48.024;16.296;2023-04-25T19:02:25;3.00;;;1.80;;
4692;SDS011;11710;48.024;16.296;2023-04-25T19:04:52;3.65;;;2.33;;
4692;SDS011;11710;48.024;16.296;2023-04-25T19:07:21;2.30;;;1.70;;
4692;SDS011;11710;48.024;16.296;2023-04-25T19:09:49;1.70;;;1.60;;
4692;SDS011;11710;48.024;16.296;2023-04-25T19:12:18;6.30;;;2.55;;
4692;SDS011;11710;48.024;16.296;2023-04-25T19:14:47;2.92;;;1.98;;
4692;SDS011;11710;48.024;16.296;2023-04-25T19:17:18;1.60;;;1.50;;
4692;SDS011;11710;48.024;16.296;2023-04-25T19:19:49;1.75;;;1.65;;
4692;SDS011;11710;48.024;16.296;2023-04-25T19:22:17;1.65;;;1.55;;
4692;SDS011;11710;48.024;16.296;2023-04-25T19:24:45;1.48;;;1.38;;
4692;SDS011;11710;48.024;16.296;2023-04-25T19:27:12;2.35;;;1.85;;
4692;SDS011;11710;48.024;16.296;2023-04-25T19:29:41;2.33;;;2.03;;
4692;SDS011;11710;48.024;16.296;2023-04-25T19:32:12;2.40;;;2.20;;
4692;SDS011;11710;48.024;16.296;2023-04-25T19:34:41;3.47;;;2.20;;
4692;SDS011;11710;48.024;16.296;2023-04-25T19:37:10;4.15;;;2.33;;
4692;SDS011;11710;48.024;16.296;2023-04-25T19:39:38;5.45;;;2.63;;
4692;SDS011;11710;48.024;16.296;2023-04-25T19:42:06;2.42;;;2.10;;
4692;SDS011;11710;48.024;16.296;2023-04-25T19:44:35;2.20;;;1.90;;
4692;SDS011;11710;48.024;16.296;2023-04-25T19:47:07;2.17;;;1.95;;
4692;SDS011;11710;48.024;16.296;2023-04-25T19:49:37;3.15;;;2.22;;
4692;SDS011;11710;48.024;16.296;2023-04-25T19:52:06;5.10;;;2.55;;
4692;SDS011;11710;48.024;16.296;2023-04-25T19:54:41;2.20;;;2.00;;
4692;SDS011;11710;48.024;16.296;2023-04-25T19:57:11;2.22;;;2.03;;
4692;SDS011;11710;48.024;16.296;2023-04-25T19:59:39;3.47;;;2.47;;